createdAt,value
2018-07-28T00:00:36.064Z,22.96
2018-07-28T00:03:04.479Z,22.93
2018-07-28T00:05:32.859Z,22.91
2018-07-28T00:08:01.291Z,22.88
2018-07-28T00:10:29.678Z,22.85
2018-07-28T00:12:58.118Z,22.80
2018-07-28T00:15:26.502Z,22.76
2018-07-28T00:17:54.902Z,22.73
2018-07-28T00:20:23.279Z,22.69
2018-07-28T00:22:51.698Z,22.66
2018-07-28T00:25:20.114Z,22.61
2018-07-28T00:27:48.514Z,22.59
2018-07-28T00:30:16.885Z,22.56
2018-07-28T00:32:45.290Z,22.54
2018-07-28T00:35:13.723Z,22.40
2018-07-28T00:37:42.126Z,22.49
2018-07-28T00:40:10.506Z,22.47
2018-07-28T00:42:39.142Z,22.44
2018-07-28T00:45:08.007Z,22.42
2018-07-28T00:47:36.414Z,22.40
2018-07-28T00:50:06.130Z,22.36
2018-07-28T00:52:34.534Z,22.33
2018-07-28T00:55:02.906Z,22.29
2018-07-28T00:57:31.306Z,22.26
2018-07-28T00:59:59.700Z,22.23
2018-07-28T01:02:28.098Z,22.18
2018-07-28T01:04:56.485Z,22.15
2018-07-28T01:07:24.890Z,22.10
2018-07-28T01:09:53.306Z,22.06
2018-07-28T01:12:21.713Z,22.03
2018-07-28T01:14:50.095Z,22.01
2018-07-28T01:17:18.489Z,21.98
2018-07-28T01:19:46.861Z,21.96
2018-07-28T01:22:15.286Z,21.93
2018-07-28T01:24:43.662Z,21.91
2018-07-28T01:27:12.065Z,21.89
2018-07-28T01:29:40.438Z,21.86
2018-07-28T01:32:08.842Z,21.82
2018-07-28T01:34:37.218Z,21.80
2018-07-28T01:37:05.711Z,21.77
2018-07-28T01:39:34.093Z,21.74
2018-07-28T01:42:02.499Z,21.71
2018-07-28T01:44:30.886Z,21.69
2018-07-28T01:46:59.298Z,21.66
2018-07-28T01:49:27.693Z,21.66
2018-07-28T01:51:56.069Z,21.65
2018-07-28T01:54:24.471Z,21.64
2018-07-28T01:56:52.929Z,21.61
2018-07-28T01:59:21.331Z,21.58
2018-07-28T02:01:49.718Z,21.55
2018-07-28T02:04:18.122Z,21.53
2018-07-28T02:06:46.506Z,21.51
2018-07-28T02:09:14.906Z,21.49
2018-07-28T02:11:43.338Z,21.48
2018-07-28T02:14:11.746Z,21.47
2018-07-28T02:16:40.117Z,21.47
2018-07-28T02:19:08.527Z,21.45
2018-07-28T02:21:36.926Z,21.44
2018-07-28T02:24:05.325Z,21.44
2018-07-28T02:26:33.739Z,21.42
2018-07-28T02:29:02.151Z,21.40
2018-07-28T02:31:30.530Z,21.38
2018-07-28T02:33:58.943Z,21.38
2018-07-28T02:36:27.325Z,21.36
2018-07-28T02:38:55.726Z,21.34
2018-07-28T02:41:24.102Z,21.33
2018-07-28T02:43:52.530Z,21.31
2018-07-28T02:46:20.905Z,21.29
2018-07-28T02:48:49.309Z,21.26
2018-07-28T02:51:17.686Z,21.24
2018-07-28T02:53:46.139Z,21.21
2018-07-28T02:56:15.581Z,21.19
2018-07-28T02:58:44.087Z,21.17
2018-07-28T03:01:12.479Z,21.15
2018-07-28T03:03:42.050Z,21.13
2018-07-28T03:06:10.426Z,21.12
2018-07-28T03:08:38.831Z,21.10
2018-07-28T03:11:07.327Z,21.08
2018-07-28T03:13:35.902Z,21.05
2018-07-28T03:16:10.872Z,21.04
2018-07-28T03:18:39.298Z,21.02
2018-07-28T03:21:07.715Z,21.00
2018-07-28T03:23:36.118Z,21.01
2018-07-28T03:26:04.507Z,21.01
2018-07-28T03:28:32.914Z,20.98
2018-07-28T03:31:01.299Z,20.97
2018-07-28T03:33:29.749Z,20.97
2018-07-28T03:35:58.121Z,20.96
2018-07-28T03:38:26.518Z,20.95
2018-07-28T03:40:54.895Z,20.92
2018-07-28T03:43:23.302Z,20.93
2018-07-28T03:45:51.720Z,20.92
2018-07-28T03:48:20.123Z,20.93
2018-07-28T03:50:48.501Z,20.93
2018-07-28T03:53:16.882Z,20.94
2018-07-28T03:55:45.286Z,20.95
2018-07-28T03:58:13.675Z,20.97
2018-07-28T04:00:42.075Z,20.99
2018-07-28T04:03:10.454Z,20.98
2018-07-28T04:05:38.891Z,20.99
2018-07-28T04:08:07.277Z,20.99
2018-07-28T04:10:35.678Z,21.02
2018-07-28T04:13:04.115Z,21.10
2018-07-28T04:15:32.505Z,21.20
2018-07-28T04:18:00.884Z,21.31
2018-07-28T04:20:29.298Z,21.48
2018-07-28T04:22:57.706Z,21.64
2018-07-28T04:25:26.118Z,21.82
2018-07-28T04:27:54.499Z,21.99
2018-07-28T04:30:22.930Z,22.20
2018-07-28T04:32:51.311Z,22.37
2018-07-28T04:35:19.722Z,22.48
2018-07-28T04:37:48.103Z,22.48
2018-07-28T04:40:16.535Z,22.47
2018-07-28T04:42:44.914Z,22.49
2018-07-28T04:45:13.333Z,22.60
2018-07-28T04:47:41.710Z,22.69
2018-07-28T04:50:10.111Z,22.77
2018-07-28T04:52:38.594Z,22.82
2018-07-28T04:55:07.322Z,22.89
2018-07-28T04:57:35.693Z,22.92
2018-07-28T05:00:05.148Z,22.94
2018-07-28T05:02:33.529Z,22.94
2018-07-28T05:05:01.931Z,22.96
2018-07-28T05:07:30.390Z,22.98
2018-07-28T05:09:58.741Z,23.00
2018-07-28T05:12:27.122Z,23.02
2018-07-28T05:14:55.531Z,23.03
2018-07-28T05:17:23.916Z,23.07
2018-07-28T05:19:52.319Z,23.08
2018-07-28T05:22:22.375Z,23.10
2018-07-28T05:24:50.787Z,23.13
2018-07-28T05:27:19.168Z,23.15
2018-07-28T05:29:47.572Z,23.17
2018-07-28T05:32:15.956Z,23.19
2018-07-28T05:34:44.359Z,23.19
2018-07-28T05:37:13.315Z,23.19
2018-07-28T05:39:41.726Z,23.20
2018-07-28T05:42:10.102Z,23.19
2018-07-28T05:44:38.548Z,23.20
2018-07-28T05:47:06.930Z,23.23
2018-07-28T05:49:35.348Z,23.26
2018-07-28T05:52:03.750Z,23.28
2018-07-28T05:54:32.132Z,23.34
2018-07-28T05:57:00.551Z,23.42
2018-07-28T05:59:28.933Z,23.51
2018-07-28T06:01:57.329Z,23.61
2018-07-28T06:04:25.707Z,23.69
2018-07-28T06:06:54.107Z,23.80
2018-07-28T06:09:22.484Z,23.91
2018-07-28T06:11:50.891Z,24.03
2018-07-28T06:14:19.266Z,24.14
2018-07-28T06:16:47.670Z,24.27
2018-07-28T06:19:16.143Z,24.39
2018-07-28T06:21:44.561Z,24.49
2018-07-28T06:24:13.069Z,24.61
2018-07-28T06:26:41.654Z,24.74
2018-07-28T06:29:10.037Z,24.88
2018-07-28T06:31:38.505Z,25.05
2018-07-28T06:34:06.855Z,25.21
2018-07-28T06:36:35.304Z,25.38
2018-07-28T06:39:04.151Z,25.55
2018-07-28T06:41:32.550Z,25.70
2018-07-28T06:44:00.939Z,25.84
2018-07-28T06:46:29.337Z,25.99
2018-07-28T06:48:57.723Z,26.14
2018-07-28T06:51:26.130Z,26.29
2018-07-28T06:53:54.525Z,26.42
2018-07-28T06:56:22.938Z,26.54
2018-07-28T06:58:51.578Z,26.66
2018-07-28T07:01:19.982Z,26.78
2018-07-28T07:03:48.638Z,26.89
2018-07-28T07:06:17.049Z,26.95
2018-07-28T07:08:45.421Z,27.10
2018-07-28T07:11:13.826Z,27.21
2018-07-28T07:13:42.259Z,27.30
2018-07-28T07:16:10.666Z,27.42
2018-07-28T07:18:39.042Z,27.54
2018-07-28T07:21:07.470Z,27.66
2018-07-28T07:23:35.842Z,27.76
2018-07-28T07:26:04.376Z,27.87
2018-07-28T07:28:32.770Z,27.97
2018-07-28T07:31:01.223Z,28.08
2018-07-28T07:33:29.606Z,28.17
2018-07-28T07:35:58.006Z,28.28
2018-07-28T07:38:26.407Z,28.37
2018-07-28T07:40:54.810Z,28.47
2018-07-28T07:43:23.305Z,28.55
2018-07-28T07:45:51.733Z,28.64
2018-07-28T07:48:20.115Z,28.73
2018-07-28T07:50:48.530Z,28.82
2018-07-28T07:53:16.910Z,28.93
2018-07-28T07:55:45.285Z,29.00
2018-07-28T07:58:13.675Z,29.08
2018-07-28T08:00:42.038Z,29.18
2018-07-28T08:03:10.450Z,29.26
2018-07-28T08:05:38.817Z,29.37
2018-07-28T08:08:07.215Z,29.45
2018-07-28T08:10:35.601Z,29.53
2018-07-28T08:13:03.999Z,29.58
2018-07-28T08:15:32.375Z,29.65
2018-07-28T08:18:00.774Z,29.70
2018-07-28T08:20:29.195Z,29.80
2018-07-28T08:22:57.633Z,29.84
2018-07-28T08:25:26.011Z,29.90
2018-07-28T08:27:54.484Z,29.97
2018-07-28T08:30:22.865Z,30.03
2018-07-28T08:32:51.266Z,30.11
2018-07-28T08:35:19.644Z,30.15
2018-07-28T08:37:48.066Z,30.21
2018-07-28T08:40:16.443Z,30.26
2018-07-28T08:42:44.849Z,30.22
2018-07-28T08:45:13.217Z,30.15
2018-07-28T08:47:41.610Z,30.09
2018-07-28T08:50:09.986Z,30.13
2018-07-28T08:52:38.373Z,30.17
2018-07-28T08:55:06.749Z,30.19
2018-07-28T08:57:35.151Z,30.23
2018-07-28T09:00:03.602Z,30.33
2018-07-28T09:02:32.050Z,30.43
2018-07-28T09:05:00.429Z,30.56
2018-07-28T09:07:28.834Z,30.72
2018-07-28T09:09:57.215Z,30.88
2018-07-28T09:12:25.629Z,31.01
2018-07-28T09:14:54.005Z,31.12
2018-07-28T09:17:22.415Z,31.21
2018-07-28T09:19:50.794Z,31.25
2018-07-28T09:22:19.221Z,31.33
2018-07-28T09:24:47.623Z,31.43
2018-07-28T09:27:16.031Z,31.52
2018-07-28T09:29:44.423Z,31.58
2018-07-28T09:32:12.830Z,31.69
2018-07-28T09:34:41.223Z,31.79
2018-07-28T09:37:09.634Z,31.94
2018-07-28T09:39:38.031Z,32.05
2018-07-28T09:42:06.499Z,32.18
2018-07-28T09:44:34.870Z,32.29
2018-07-28T09:47:03.401Z,32.40
2018-07-28T09:49:31.678Z,32.48
2018-07-28T09:52:00.047Z,32.62
2018-07-28T09:54:29.181Z,32.71
2018-07-28T09:56:57.584Z,32.68
2018-07-28T09:59:26.040Z,32.67
2018-07-28T10:01:54.413Z,32.62
2018-07-28T10:04:22.841Z,32.64
2018-07-28T10:06:51.209Z,32.57
2018-07-28T10:09:19.618Z,32.51
2018-07-28T10:11:47.997Z,32.56
2018-07-28T10:14:16.402Z,32.54
2018-07-28T10:16:44.769Z,32.58
2018-07-28T10:19:13.224Z,32.62
2018-07-28T10:21:41.724Z,32.65
2018-07-28T10:24:10.277Z,32.77
2018-07-28T10:26:38.693Z,32.84
2018-07-28T10:29:07.094Z,32.92
2018-07-28T10:31:35.475Z,32.95
2018-07-28T10:34:03.876Z,32.95
2018-07-28T10:36:32.407Z,33.04
2018-07-28T10:39:00.866Z,33.08
2018-07-28T10:41:29.237Z,33.17
2018-07-28T10:43:57.731Z,33.24
2018-07-28T10:46:26.099Z,33.24
2018-07-28T10:48:54.511Z,33.29
2018-07-28T10:51:22.896Z,33.34
2018-07-28T10:53:51.285Z,33.29
2018-07-28T10:56:19.695Z,33.26
2018-07-28T10:58:48.093Z,33.23
2018-07-28T11:01:16.483Z,33.25
2018-07-28T11:03:44.877Z,33.13
2018-07-28T11:06:13.268Z,33.08
2018-07-28T11:08:41.663Z,33.05
2018-07-28T11:11:10.115Z,33.05
2018-07-28T11:13:38.508Z,33.02
2018-07-28T11:16:06.891Z,32.98
2018-07-28T11:18:35.315Z,32.99
2018-07-28T11:21:03.742Z,32.99
2018-07-28T11:23:43.537Z,33.03
2018-07-28T11:26:12.010Z,33.09
2018-07-28T11:28:40.371Z,33.17
2018-07-28T11:31:19.309Z,33.22
2018-07-28T11:33:59.075Z,33.19
2018-07-28T11:36:38.852Z,33.14
2018-07-28T11:39:18.646Z,33.11
2018-07-28T11:41:58.247Z,33.14
2018-07-28T11:45:30.983Z,33.14
2018-07-28T11:47:59.356Z,33.06
2018-07-28T11:50:27.798Z,33.01
2018-07-28T11:52:56.167Z,33.05
2018-07-28T11:55:24.563Z,33.11
2018-07-28T11:57:52.931Z,33.22
2018-07-28T12:00:21.323Z,33.38
2018-07-28T12:02:49.693Z,33.53
2018-07-28T12:05:18.091Z,33.68
2018-07-28T12:07:46.463Z,33.81
2018-07-28T12:10:14.932Z,33.93
2018-07-28T12:12:43.328Z,34.04
2018-07-28T12:15:11.738Z,34.14
2018-07-28T12:17:40.127Z,34.25
2018-07-28T12:20:08.525Z,34.34
2018-07-28T12:22:36.913Z,34.41
2018-07-28T12:25:05.493Z,34.43
2018-07-28T12:27:33.878Z,34.48
2018-07-28T12:30:02.274Z,34.54
2018-07-28T12:32:30.647Z,34.57
2018-07-28T12:34:59.128Z,34.48
2018-07-28T12:37:27.439Z,34.39
2018-07-28T12:39:55.829Z,34.27
2018-07-28T12:42:24.280Z,34.25
2018-07-28T12:44:52.782Z,34.17
2018-07-28T12:47:21.228Z,34.15
2018-07-28T12:49:49.626Z,34.06
2018-07-28T12:52:17.998Z,34.04
2018-07-28T12:54:46.405Z,34.03
2018-07-28T12:57:14.857Z,34.07
2018-07-28T12:59:43.465Z,34.12
2018-07-28T13:02:11.837Z,34.19
2018-07-28T13:04:40.255Z,34.31
2018-07-28T13:07:08.671Z,34.42
2018-07-28T13:09:37.048Z,34.44
2018-07-28T13:12:05.463Z,34.39
2018-07-28T13:14:33.854Z,34.29
2018-07-28T13:17:02.267Z,34.21
2018-07-28T13:19:30.653Z,34.14
2018-07-28T13:21:59.067Z,34.09
2018-07-28T13:24:27.433Z,34.05
2018-07-28T13:26:55.941Z,34.00
2018-07-28T13:29:24.402Z,33.99
2018-07-28T13:31:52.824Z,33.95
2018-07-28T13:34:21.195Z,34.00
2018-07-28T13:36:49.585Z,33.97
2018-07-28T13:39:17.962Z,33.94
2018-07-28T13:41:46.385Z,33.95
2018-07-28T13:44:14.753Z,33.94
2018-07-28T13:46:43.147Z,33.96
2018-07-28T13:49:11.523Z,33.98
2018-07-28T13:51:39.951Z,34.04
2018-07-28T13:54:08.329Z,34.10
2018-07-28T13:56:36.738Z,34.19
2018-07-28T13:59:05.498Z,34.29
2018-07-28T14:01:33.882Z,34.37
2018-07-28T14:04:02.253Z,34.48
2018-07-28T14:06:30.637Z,34.60
2018-07-28T14:08:59.395Z,34.73
2018-07-28T14:11:27.789Z,34.82
2018-07-28T14:13:56.154Z,34.92
2018-07-28T14:16:24.574Z,35.01
2018-07-28T14:18:52.999Z,35.07
2018-07-28T14:21:21.411Z,35.11
2018-07-28T14:23:49.785Z,35.06
2018-07-28T14:26:18.177Z,35.00
2018-07-28T14:28:46.537Z,34.99
2018-07-28T14:31:14.925Z,34.99
2018-07-28T14:33:43.295Z,34.99
2018-07-28T14:36:11.693Z,34.98
2018-07-28T14:38:40.066Z,34.98
2018-07-28T14:41:08.562Z,34.98
2018-07-28T14:43:36.929Z,34.94
2018-07-28T14:46:05.344Z,34.87
2018-07-28T14:48:33.718Z,34.72
2018-07-28T14:51:02.109Z,34.63
2018-07-28T14:53:30.527Z,34.56
2018-07-28T14:55:58.922Z,34.54
2018-07-28T14:58:27.299Z,34.51
2018-07-28T15:00:55.689Z,34.46
2018-07-28T15:03:24.061Z,34.41
2018-07-28T15:05:52.462Z,34.38
2018-07-28T15:08:20.898Z,34.40
2018-07-28T15:10:49.321Z,34.45
2018-07-28T15:13:17.785Z,34.51
2018-07-28T15:15:46.159Z,34.56
2018-07-28T15:18:14.557Z,34.58
2018-07-28T15:20:42.929Z,34.57
2018-07-28T15:23:11.337Z,34.58
2018-07-28T15:25:39.701Z,34.58
2018-07-28T15:28:08.095Z,34.58
2018-07-28T15:30:36.465Z,34.57
2018-07-28T15:33:04.876Z,34.54
2018-07-28T15:35:33.242Z,34.55
2018-07-28T15:38:01.633Z,34.50
2018-07-28T15:40:30.000Z,34.48
2018-07-28T15:42:58.431Z,34.46
2018-07-28T15:45:26.805Z,34.40
2018-07-28T15:47:55.233Z,34.39
2018-07-28T15:50:23.591Z,34.39
2018-07-28T15:52:51.991Z,34.36
2018-07-28T15:55:20.353Z,34.32
2018-07-28T15:57:48.743Z,34.28
2018-07-28T16:00:18.585Z,34.23
2018-07-28T16:02:47.761Z,34.16
2018-07-28T16:05:16.294Z,34.14
2018-07-28T16:07:44.687Z,34.11
2018-07-28T16:10:13.053Z,34.08
2018-07-28T16:12:41.450Z,34.05
2018-07-28T16:15:09.877Z,34.02
2018-07-28T16:17:38.267Z,33.98
2018-07-28T16:20:06.725Z,33.97
2018-07-28T16:22:35.166Z,33.95
2018-07-28T16:25:03.653Z,33.99
2018-07-28T16:27:32.085Z,34.00
2018-07-28T16:30:00.473Z,34.00
2018-07-28T16:32:28.865Z,34.03
2018-07-28T16:34:57.246Z,34.07
2018-07-28T16:37:25.645Z,34.17
2018-07-28T16:39:54.054Z,34.32
2018-07-28T16:42:22.441Z,34.52
2018-07-28T16:44:50.872Z,34.75
2018-07-28T16:47:19.256Z,35.03
2018-07-28T16:49:47.613Z,35.28
2018-07-28T16:52:16.046Z,35.43
2018-07-28T16:54:44.406Z,35.34
2018-07-28T16:57:12.793Z,35.17
2018-07-28T16:59:41.167Z,35.12
2018-07-28T17:02:09.724Z,35.08
2018-07-28T17:04:38.110Z,35.01
2018-07-28T17:07:06.576Z,34.91
2018-07-28T17:09:34.936Z,34.82
2018-07-28T17:12:03.333Z,34.75
2018-07-28T17:14:31.725Z,34.63
2018-07-28T17:17:00.085Z,34.45
2018-07-28T17:19:28.509Z,34.29
2018-07-28T17:21:56.906Z,34.06
2018-07-28T17:24:25.307Z,33.85
2018-07-28T17:26:53.699Z,33.65
2018-07-28T17:29:22.090Z,33.46
2018-07-28T17:31:50.469Z,33.25
2018-07-28T17:34:18.869Z,33.05
2018-07-28T17:36:47.252Z,32.87
2018-07-28T17:39:15.663Z,32.70
2018-07-28T17:41:44.062Z,32.57
2018-07-28T17:44:12.474Z,32.44
2018-07-28T17:46:40.907Z,32.32
2018-07-28T17:49:09.294Z,32.23
2018-07-28T17:51:37.676Z,32.13
2018-07-28T17:54:06.074Z,31.95
2018-07-28T17:56:34.653Z,31.63
2018-07-28T17:59:03.049Z,31.26
2018-07-28T18:01:31.475Z,30.88
2018-07-28T18:03:59.887Z,30.50
2018-07-28T18:06:28.254Z,30.22
2018-07-28T18:08:56.650Z,29.95
2018-07-28T18:11:25.021Z,29.71
2018-07-28T18:13:53.413Z,29.46
2018-07-28T18:16:22.003Z,29.24
2018-07-28T18:18:50.410Z,29.04
2018-07-28T18:21:18.811Z,28.83
2018-07-28T18:23:47.249Z,28.64
2018-07-28T18:26:15.610Z,28.48
2018-07-28T18:28:44.001Z,28.35
2018-07-28T18:31:12.387Z,28.22
2018-07-28T18:33:40.790Z,28.12
2018-07-28T18:36:09.164Z,28.02
2018-07-28T18:38:37.561Z,27.91
2018-07-28T18:41:05.943Z,27.78
2018-07-28T18:43:34.333Z,27.65
2018-07-28T18:46:02.706Z,27.51
2018-07-28T18:48:31.106Z,27.36
2018-07-28T18:50:59.483Z,27.21
2018-07-28T18:53:27.911Z,27.05
2018-07-28T18:55:56.292Z,26.94
2018-07-28T18:58:24.700Z,26.83
2018-07-28T19:00:53.094Z,26.73
2018-07-28T19:03:21.599Z,26.63
2018-07-28T19:05:50.093Z,26.55
2018-07-28T19:08:18.475Z,26.49
2018-07-28T19:10:46.909Z,26.44
2018-07-28T19:13:20.568Z,26.38
2018-07-28T19:15:48.966Z,26.31
2018-07-28T19:18:22.697Z,26.29
2018-07-28T19:20:51.247Z,26.26
2018-07-28T19:23:24.835Z,26.22
2018-07-28T19:25:53.266Z,26.21
2018-07-28T19:28:27.103Z,26.20
2018-07-28T19:30:55.593Z,26.19
2018-07-28T19:33:23.980Z,26.17
2018-07-28T19:35:57.800Z,26.14
2018-07-28T19:38:26.209Z,26.11
2018-07-28T19:40:54.610Z,26.06
2018-07-28T19:43:23.075Z,26.00
2018-07-28T19:45:51.495Z,25.97
2018-07-28T19:48:19.861Z,25.94
2018-07-28T19:50:48.250Z,25.93
2018-07-28T19:53:16.622Z,25.93
2018-07-28T19:55:45.039Z,25.92
2018-07-28T19:58:13.419Z,25.86
2018-07-28T20:00:41.905Z,25.78
2018-07-28T20:03:10.282Z,25.63
2018-07-28T20:05:38.678Z,25.49
2018-07-28T20:08:07.295Z,25.34
2018-07-28T20:10:35.695Z,25.22
2018-07-28T20:13:04.066Z,25.11
2018-07-28T20:15:32.539Z,25.01
2018-07-28T20:18:00.917Z,24.93
2018-07-28T20:20:29.336Z,24.85
2018-07-28T20:22:57.738Z,24.76
2018-07-28T20:25:26.142Z,24.70
2018-07-28T20:27:54.527Z,24.64
2018-07-28T20:30:22.921Z,24.57
2018-07-28T20:32:51.293Z,24.54
2018-07-28T20:35:19.698Z,24.48
2018-07-28T20:37:48.081Z,24.42
2018-07-28T20:40:16.534Z,24.37
2018-07-28T20:42:44.911Z,24.33
2018-07-28T20:45:13.323Z,24.28
2018-07-28T20:47:41.697Z,24.24
2018-07-28T20:50:10.104Z,24.22
2018-07-28T20:52:38.531Z,24.17
2018-07-28T20:55:06.934Z,24.13
2018-07-28T20:57:35.514Z,24.08
2018-07-28T21:00:04.103Z,24.04
2018-07-28T21:02:32.487Z,23.99
2018-07-28T21:05:00.902Z,23.93
2018-07-28T21:07:29.273Z,23.90
2018-07-28T21:09:57.656Z,23.88
2018-07-28T21:12:26.063Z,23.85
2018-07-28T21:14:54.587Z,23.83
2018-07-28T21:17:23.011Z,23.80
2018-07-28T21:19:51.394Z,23.78
2018-07-28T21:22:20.042Z,23.76
2018-07-28T21:24:48.419Z,23.73
2018-07-28T21:27:16.822Z,23.71
2018-07-28T21:29:45.227Z,23.71
2018-07-28T21:32:13.631Z,23.71
2018-07-28T21:34:42.012Z,23.70
2018-07-28T21:37:10.414Z,23.67
2018-07-28T21:39:38.791Z,23.60
2018-07-28T21:42:07.191Z,23.56
2018-07-28T21:44:35.575Z,23.54
2018-07-28T21:47:03.997Z,23.53
2018-07-28T21:49:32.373Z,23.52
2018-07-28T21:52:00.765Z,23.50
2018-07-28T21:54:29.146Z,23.46
2018-07-28T21:56:57.558Z,23.42
2018-07-28T21:59:25.956Z,23.39
2018-07-28T22:01:54.364Z,23.36
2018-07-28T22:04:25.638Z,23.36
2018-07-28T22:06:54.033Z,23.34
2018-07-28T22:09:22.415Z,23.32
2018-07-28T22:11:50.825Z,23.29
2018-07-28T22:14:19.216Z,23.26
2018-07-28T22:16:47.627Z,23.23
2018-07-28T22:19:16.015Z,23.23
2018-07-28T22:21:44.445Z,23.21
2018-07-28T22:24:12.848Z,23.21
2018-07-28T22:26:41.243Z,23.18
2018-07-28T22:29:09.614Z,23.16
2018-07-28T22:31:38.023Z,23.13
2018-07-28T22:34:06.833Z,23.09
2018-07-28T22:36:35.231Z,23.06
2018-07-28T22:39:03.671Z,23.04
2018-07-28T22:41:32.075Z,23.03
2018-07-28T22:44:00.458Z,23.02
2018-07-28T22:46:28.856Z,23.01
2018-07-28T22:48:57.234Z,22.99
2018-07-28T22:51:25.632Z,22.95
2018-07-28T22:53:54.001Z,22.93
2018-07-28T22:56:22.397Z,22.91
2018-07-28T22:58:50.771Z,22.90
2018-07-28T23:01:19.221Z,22.86
2018-07-28T23:03:47.607Z,22.83
2018-07-28T23:06:15.990Z,22.81
2018-07-28T23:08:44.493Z,22.74
2018-07-28T23:11:12.873Z,22.67
2018-07-28T23:13:41.283Z,22.59
2018-07-28T23:16:09.680Z,22.54
2018-07-28T23:18:38.078Z,22.50
2018-07-28T23:21:06.637Z,22.49
2018-07-28T23:23:35.035Z,22.48
2018-07-28T23:26:03.415Z,22.48
2018-07-28T23:28:31.818Z,22.49
2018-07-28T23:31:00.211Z,22.49
2018-07-28T23:33:28.619Z,22.49
2018-07-28T23:35:56.993Z,22.50
2018-07-28T23:38:25.396Z,22.50
2018-07-28T23:40:53.786Z,22.50
2018-07-28T23:43:22.204Z,22.51
2018-07-28T23:45:50.580Z,22.51
2018-07-28T23:48:19.068Z,22.50
2018-07-28T23:50:47.457Z,22.49
2018-07-28T23:53:15.858Z,22.47
2018-07-28T23:55:44.241Z,22.41
2018-07-28T23:58:12.638Z,22.38
